createdAt,value
2023-08-21T00:00:18.129Z,98428.81
2023-08-21T00:05:22.565Z,98435.81
2023-08-21T00:10:25.680Z,98441.78
2023-08-21T00:15:28.785Z,98437.00
2023-08-21T00:20:33.566Z,98424.09
2023-08-21T00:25:36.926Z,98420.63
2023-08-21T00:30:40.075Z,98409.34
2023-08-21T00:35:44.561Z,98417.84
2023-08-21T00:40:47.682Z,98419.47
2023-08-21T00:45:52.231Z,98416.81
2023-08-21T00:50:57.036Z,98424.63
2023-08-21T00:56:00.482Z,98420.13
2023-08-21T01:01:05.787Z,98420.88
2023-08-21T01:06:10.318Z,98421.84
2023-08-21T01:11:21.038Z,98421.91
2023-08-21T01:16:26.402Z,98425.25
2023-08-21T01:21:30.974Z,98422.63
2023-08-21T01:26:36.603Z,98418.34
2023-08-21T01:31:42.998Z,98424.31
2023-08-21T01:36:48.083Z,98430.22
2023-08-21T01:41:52.524Z,98430.66
2023-08-21T01:46:55.829Z,98427.13
2023-08-21T01:51:58.930Z,98421.28
2023-08-21T01:57:03.944Z,98418.56
2023-08-21T02:02:07.066Z,98425.31
2023-08-21T02:07:10.197Z,98422.00
2023-08-21T02:12:14.621Z,98421.19
2023-08-21T02:17:17.692Z,98421.19
2023-08-21T02:22:20.823Z,98419.19
2023-08-21T02:27:25.340Z,98411.25
2023-08-21T02:32:28.494Z,98413.00
2023-08-21T02:37:31.788Z,98418.22
2023-08-21T02:42:36.648Z,98422.53
2023-08-21T02:47:41.101Z,98419.84
2023-08-21T02:52:44.319Z,98419.78
2023-08-21T02:57:48.806Z,98418.63
2023-08-21T03:02:52.054Z,98419.63
2023-08-21T03:07:55.223Z,98418.94
2023-08-21T03:12:59.677Z,98418.81
2023-08-21T03:18:02.932Z,98408.16
2023-08-21T03:23:06.133Z,98409.00
2023-08-21T03:28:10.808Z,98414.16
2023-08-21T03:33:13.944Z,98412.22
2023-08-21T03:38:17.097Z,98420.16
2023-08-21T03:43:21.512Z,98423.50
2023-08-21T03:48:24.816Z,98421.81
2023-08-21T03:53:28.831Z,98430.31
2023-08-21T03:58:34.732Z,98434.50
2023-08-21T04:03:38.042Z,98434.50
2023-08-21T04:08:41.127Z,98437.88
2023-08-21T04:13:45.559Z,98443.91
2023-08-21T04:18:48.620Z,98450.72
2023-08-21T04:23:51.773Z,98457.00
2023-08-21T04:28:56.230Z,98453.44
2023-08-21T04:33:59.354Z,98457.78
2023-08-21T04:39:02.459Z,98465.22
2023-08-21T04:44:06.994Z,98466.09
2023-08-21T04:49:10.583Z,98466.16
2023-08-21T04:54:13.748Z,98471.59
2023-08-21T04:59:18.198Z,98473.19
2023-08-21T05:04:21.308Z,98479.47
2023-08-21T05:09:24.446Z,98479.53
2023-08-21T05:14:32.082Z,98479.59
2023-08-21T05:19:35.181Z,98472.97
2023-08-21T05:24:38.321Z,98479.25
2023-08-21T05:29:43.032Z,98481.97
2023-08-21T05:34:46.320Z,98480.94
2023-08-21T05:39:49.968Z,98476.81
2023-08-21T05:44:54.371Z,98477.69
2023-08-21T05:49:57.508Z,98482.94
2023-08-21T05:55:00.804Z,98487.63
2023-08-21T06:00:09.333Z,98484.84
2023-08-21T06:05:12.461Z,98496.41
2023-08-21T06:10:16.131Z,98500.22
2023-08-21T06:15:20.855Z,98502.88
2023-08-21T06:20:23.955Z,98501.34
2023-08-21T06:25:27.097Z,98503.19
2023-08-21T06:30:31.668Z,98505.81
2023-08-21T06:35:34.743Z,98511.88
2023-08-21T06:40:38.101Z,98509.09
2023-08-21T06:45:43.346Z,98509.03
2023-08-21T06:50:46.464Z,98507.22
2023-08-21T06:55:49.572Z,98507.03
2023-08-21T07:00:55.817Z,98509.44
2023-08-21T07:06:01.577Z,98500.47
2023-08-21T07:11:05.899Z,98511.22
2023-08-21T07:16:10.466Z,98510.22
2023-08-21T07:21:27.095Z,98517.47
2023-08-21T07:26:35.851Z,98516.59
2023-08-21T07:31:40.379Z,98511.31
2023-08-21T07:36:43.496Z,98510.50
2023-08-21T07:41:46.738Z,98511.34
2023-08-21T07:46:51.208Z,98515.94
2023-08-21T07:51:54.286Z,98519.91
2023-08-21T07:56:57.508Z,98520.63
2023-08-21T08:02:03.732Z,98519.69
2023-08-21T08:07:06.904Z,98515.91
2023-08-21T08:12:10.473Z,98516.09
2023-08-21T08:17:14.888Z,98517.81
2023-08-21T08:22:18.001Z,98520.09
2023-08-21T08:27:21.084Z,98515.84
2023-08-21T08:32:25.617Z,98520.16
2023-08-21T08:37:28.745Z,98518.13
2023-08-21T08:42:32.522Z,98517.22
2023-08-21T08:47:38.105Z,98509.03
2023-08-21T08:52:42.045Z,98511.66
2023-08-21T08:57:45.347Z,98518.44
2023-08-21T09:02:52.310Z,98515.56
2023-08-21T09:08:11.625Z,98511.19
2023-08-21T09:13:17.081Z,98503.19
2023-08-21T09:18:21.725Z,98501.59
2023-08-21T09:23:24.797Z,98497.59
2023-08-21T09:28:27.992Z,98497.72
2023-08-21T09:33:32.477Z,98502.44
2023-08-21T09:38:37.369Z,98498.16
2023-08-21T09:43:44.844Z,98496.50
2023-08-21T09:48:50.265Z,98495.16
2023-08-21T09:53:56.254Z,98492.84
2023-08-21T09:58:59.414Z,98489.88
2023-08-21T10:04:05.251Z,98484.31
2023-08-21T10:09:09.796Z,98478.41
2023-08-21T10:14:13.607Z,98469.75
2023-08-21T10:19:20.054Z,98471.00
2023-08-21T10:24:30.640Z,98462.34
2023-08-21T10:29:34.634Z,98460.31
2023-08-21T10:34:40.136Z,98446.63
2023-08-21T10:39:58.870Z,98451.91
2023-08-21T10:45:13.007Z,98445.00
2023-08-21T10:50:17.441Z,98443.03
2023-08-21T10:55:20.907Z,98441.88
2023-08-21T11:00:24.099Z,98430.28
2023-08-21T11:05:28.658Z,98432.56
2023-08-21T11:10:34.598Z,98432.53
2023-08-21T11:15:39.092Z,98427.13
2023-08-21T11:20:44.379Z,98434.31
2023-08-21T11:25:47.558Z,98430.66
2023-08-21T11:30:50.743Z,98434.03
2023-08-21T11:35:55.385Z,98429.34
2023-08-21T11:41:00.521Z,98425.97
2023-08-21T11:46:04.401Z,98426.06
2023-08-21T11:51:09.565Z,98427.91
2023-08-21T11:56:14.397Z,98421.84
2023-08-21T12:01:21.262Z,98423.56
2023-08-21T12:06:28.326Z,98419.81
2023-08-21T12:11:31.500Z,98414.81
2023-08-21T12:16:34.919Z,98412.50
2023-08-21T12:21:40.025Z,98404.66
2023-08-21T12:26:49.927Z,98413.63
2023-08-21T12:31:53.817Z,98405.06
2023-08-21T12:36:58.685Z,98408.91
2023-08-21T12:42:01.767Z,98406.34
2023-08-21T12:47:05.026Z,98407.63
2023-08-21T12:52:11.001Z,98390.81
2023-08-21T12:57:15.051Z,98390.41
2023-08-21T13:02:18.192Z,98393.69
2023-08-21T13:07:22.583Z,98382.78
2023-08-21T13:12:25.667Z,98377.31
2023-08-21T13:17:28.805Z,98363.66
2023-08-21T13:22:47.151Z,98362.91
2023-08-21T13:27:50.737Z,98366.06
2023-08-21T13:32:53.855Z,98359.94
2023-08-21T13:37:58.357Z,98354.19
2023-08-21T13:43:03.009Z,98345.38
2023-08-21T13:48:07.568Z,98337.66
2023-08-21T13:53:12.048Z,98326.31
2023-08-21T13:58:15.624Z,98328.34
2023-08-21T14:03:18.736Z,98332.84
2023-08-21T14:08:23.183Z,98326.63
2023-08-21T14:13:26.297Z,98325.78
2023-08-21T14:18:29.424Z,98316.56
2023-08-21T14:23:34.536Z,98320.28
2023-08-21T14:28:37.790Z,98305.50
2023-08-21T14:33:40.921Z,98311.66
2023-08-21T14:38:45.372Z,98308.16
2023-08-21T14:43:48.501Z,98308.09
2023-08-21T14:48:51.594Z,98299.13
2023-08-21T14:53:56.134Z,98298.19
2023-08-21T14:58:59.282Z,98293.88
2023-08-21T15:04:02.640Z,98295.16
2023-08-21T15:09:07.710Z,98296.09
2023-08-21T15:14:13.264Z,98289.00
2023-08-21T15:19:16.372Z,98292.59
2023-08-21T15:24:20.848Z,98280.19
2023-08-21T15:29:24.263Z,98280.19
2023-08-21T15:34:27.332Z,98280.25
2023-08-21T15:39:31.790Z,98272.34
2023-08-21T15:44:34.948Z,98263.41
2023-08-21T15:49:38.286Z,98267.09
2023-08-21T15:54:42.783Z,98254.88
2023-08-21T15:59:45.978Z,98266.53
2023-08-21T16:04:49.110Z,98249.78
2023-08-21T16:09:53.565Z,98252.72
2023-08-21T16:14:56.985Z,98242.06
2023-08-21T16:20:03.913Z,98243.25
2023-08-21T16:25:09.446Z,98248.66
2023-08-21T16:30:13.505Z,98244.41
2023-08-21T16:35:16.889Z,98243.59
2023-08-21T16:40:24.290Z,98245.53
2023-08-21T16:45:27.860Z,98249.31
2023-08-21T16:50:30.971Z,98246.81
2023-08-21T16:55:35.395Z,98249.69
2023-08-21T17:00:38.581Z,98252.59
2023-08-21T17:05:41.736Z,98246.63
2023-08-21T17:10:46.267Z,98250.34
2023-08-21T17:15:52.037Z,98251.44
2023-08-21T17:20:56.598Z,98245.44
2023-08-21T17:26:01.061Z,98250.03
2023-08-21T17:31:04.173Z,98254.63
2023-08-21T17:36:07.690Z,98252.19
2023-08-21T17:41:12.157Z,98252.44
2023-08-21T17:46:17.855Z,98252.56
2023-08-21T17:51:20.987Z,98252.84
2023-08-21T17:56:25.501Z,98250.44
2023-08-21T18:01:28.920Z,98252.47
2023-08-21T18:06:32.404Z,98252.66
2023-08-21T18:11:36.923Z,98251.91
2023-08-21T18:16:40.125Z,98258.22
2023-08-21T18:21:44.321Z,98262.75
2023-08-21T18:26:49.032Z,98266.34
2023-08-21T18:31:52.161Z,98262.94
2023-08-21T18:36:55.242Z,98271.81
2023-08-21T18:41:59.671Z,98274.44
2023-08-21T18:47:03.151Z,98286.81
2023-08-21T18:52:06.839Z,98289.50
2023-08-21T18:57:11.262Z,98293.91
2023-08-21T19:02:16.080Z,98305.38
2023-08-21T19:07:19.185Z,98305.44
2023-08-21T19:12:23.661Z,98313.25
2023-08-21T19:17:27.657Z,98308.91
2023-08-21T19:22:30.802Z,98311.56
2023-08-21T19:27:35.289Z,98305.44
2023-08-21T19:32:38.509Z,98298.44
2023-08-21T19:37:41.877Z,98308.06
2023-08-21T19:42:46.651Z,98299.31
2023-08-21T19:47:50.517Z,98306.28
2023-08-21T19:52:53.977Z,98305.41
2023-08-21T19:57:58.475Z,98305.34
2023-08-21T20:03:01.888Z,98306.25
2023-08-21T20:08:05.633Z,98310.59
2023-08-21T20:13:10.088Z,98313.16
2023-08-21T20:18:13.303Z,98319.19
2023-08-21T20:23:16.875Z,98327.91
2023-08-21T20:28:21.315Z,98326.13
2023-08-21T20:33:24.406Z,98321.75
2023-08-21T20:38:28.884Z,98328.69
2023-08-21T20:43:34.505Z,98326.91
2023-08-21T20:48:37.649Z,98328.59
2023-08-21T20:53:40.772Z,98322.47
2023-08-21T20:58:45.161Z,98320.63
2023-08-21T21:03:48.308Z,98325.84
2023-08-21T21:08:51.399Z,98325.78
2023-08-21T21:13:55.819Z,98329.22
2023-08-21T21:18:58.911Z,98319.59
2023-08-21T21:24:01.980Z,98329.16
2023-08-21T21:29:06.529Z,98323.81
2023-08-21T21:34:09.630Z,98320.28
2023-08-21T21:39:14.209Z,98325.44
2023-08-21T21:44:18.658Z,98317.56
2023-08-21T21:49:21.784Z,98319.25
2023-08-21T21:54:24.863Z,98320.97
2023-08-21T21:59:29.323Z,98314.81
2023-08-21T22:04:32.430Z,98316.56
2023-08-21T22:09:35.538Z,98322.47
2023-08-21T22:14:40.040Z,98322.47
2023-08-21T22:19:43.357Z,98312.94
2023-08-21T22:24:46.488Z,98304.19
2023-08-21T22:29:50.896Z,98316.34
2023-08-21T22:34:53.989Z,98308.47
2023-08-21T22:39:57.150Z,98314.44
2023-08-21T22:45:01.757Z,98316.16
2023-08-21T22:50:05.396Z,98310.91
2023-08-21T22:55:10.006Z,98303.16
2023-08-21T23:00:16.495Z,98303.00
2023-08-21T23:05:19.573Z,98303.06
2023-08-21T23:10:22.896Z,98298.69
2023-08-21T23:15:27.345Z,98296.94
2023-08-21T23:20:30.876Z,98291.66
2023-08-21T23:25:34.048Z,98294.28
2023-08-21T23:30:39.931Z,98292.44
2023-08-21T23:35:43.076Z,98294.97
2023-08-21T23:40:46.222Z,98281.72
2023-08-21T23:45:50.668Z,98279.88
2023-08-21T23:50:53.748Z,98276.31
2023-08-21T23:55:56.842Z,98275.41
